Time;durP1;ratioP1;P1;durP2;ratioP2;P2;SDS_P1;SDS_P2;PMS_P1;PMS_P2;Temp;Humidity;BMP_temperature;BMP_pressure;BME280_temperature;BME280_humidity;BME280_pressure;Samples;Min_cycle;Max_cycle;Signal;HPM_P1;HPM_P2
2022/11/10 00:00:33;;;;;;;;;;;8.80;99.90;;;;;;5015415;28;19915;-75
2022/11/10 00:02:59;;;;;;;;;;;8.80;99.90;;;;;;5014813;28;19963;-75
2022/11/10 00:05:24;;;;;;;;;;;9.10;99.90;;;;;;5014816;28;19956;-75
2022/11/10 00:07:50;;;;;;;;;;;9.20;99.90;;;;;;5014800;28;20348;-75
2022/11/10 00:10:15;;;;;;;;;;;9.30;99.90;;;;;;5015262;28;19996;-75
2022/11/10 00:12:41;;;;;;;;;;;9.30;99.90;;;;;;5014613;28;19917;-75
2022/11/10 00:18:05;;;;;;;;;;;9.20;99.90;;;;;;4960673;28;19996;-75
2022/11/10 00:20:31;;;;;;;;;;;9.10;99.90;;;;;;5014366;28;19975;-75
2022/11/10 00:22:57;;;;;;;;;;;8.80;99.90;;;;;;5014801;28;19910;-75
2022/11/10 00:25:23;;;;;;;;;;;8.60;99.90;;;;;;5014443;28;20048;-75
2022/11/10 00:27:48;;;;;;;;;;;8.60;99.90;;;;;;5014410;28;20480;-75
2022/11/10 00:30:14;;;;;;;;;;;8.60;99.90;;;;;;5014669;28;19948;-75
2022/11/10 00:32:39;;;;;;;;;;;8.50;99.90;;;;;;4996603;28;19943;-75
2022/11/10 00:35:06;;;;;;;;;;;8.70;99.90;;;;;;5014329;28;20382;-76
2022/11/10 00:37:32;;;;;;;;;;;8.80;99.90;;;;;;5014270;28;19909;-76
2022/11/10 00:39:57;;;;;;;;;;;8.90;99.90;;;;;;5014277;28;19917;-77
2022/11/10 00:42:23;;;;;;;;;;;9.10;99.90;;;;;;5014220;28;19910;-75
2022/11/10 00:44:48;;;;;;;;;;;9.20;99.90;;;;;;5014958;28;19935;-74
2022/11/10 00:47:14;;;;;;;;;;;9.20;99.90;;;;;;5014140;28;19914;-75
2022/11/10 00:49:39;;;;;;;;;;;9.00;99.90;;;;;;5014095;28;19910;-75
2022/11/10 00:52:05;;;;;;;;;;;8.80;99.90;;;;;;5014019;28;19914;-75
2022/11/10 00:54:30;;;;;;;;;;;8.80;99.90;;;;;;5014053;28;19909;-75
2022/11/10 00:56:56;;;;;;;;;;;8.80;99.90;;;;;;5014264;28;20370;-75
2022/11/10 00:59:21;;;;;;;;;;;8.90;99.90;;;;;;5013885;28;19909;-75
2022/11/10 01:01:47;;;;;;;;;;;8.80;99.90;;;;;;5013852;28;20332;-75
2022/11/10 01:04:12;;;;;;;;;;;8.70;99.90;;;;;;5013906;28;19909;-76
2022/11/10 01:06:38;;;;;;;;;;;8.60;99.90;;;;;;5014168;28;19909;-76
2022/11/10 01:09:03;;;;;;;;;;;8.60;99.90;;;;;;5013891;28;20308;-75
2022/11/10 01:11:29;;;;;;;;;;;8.40;99.90;;;;;;5014344;28;19936;-75
2022/11/10 01:13:55;;;;;;;;;;;8.40;99.90;;;;;;5013881;28;19913;-75
2022/11/10 01:16:24;;;;;;;;;;;8.40;99.90;;;;;;5014006;28;19909;-75
2022/11/10 01:18:50;;;;;;;;;;;8.40;99.90;;;;;;5013616;28;19971;-75
2022/11/10 01:21:18;;;;;;;;;;;8.50;99.90;;;;;;5013297;28;20380;-75
2022/11/10 01:23:44;;;;;;;;;;;8.50;99.90;;;;;;5013775;28;19913;-75
2022/11/10 01:26:09;;;;;;;;;;;8.60;99.90;;;;;;5014077;28;20324;-75
2022/11/10 01:28:35;;;;;;;;;;;8.70;99.90;;;;;;5013716;28;19910;-75
2022/11/10 01:31:03;;;;;;;;;;;8.60;99.90;;;;;;5013733;28;19960;-76
2022/11/10 01:33:28;;;;;;;;;;;8.50;99.90;;;;;;5013618;28;19920;-76
2022/11/10 01:35:54;;;;;;;;;;;8.40;99.90;;;;;;5013959;28;19995;-76
2022/11/10 01:38:20;;;;;;;;;;;8.20;99.90;;;;;;5013927;28;20358;-75
2022/11/10 01:40:45;;;;;;;;;;;8.10;99.90;;;;;;5013909;28;19909;-75
2022/11/10 01:43:14;;;;;;;;;;;8.10;99.90;;;;;;5013610;28;19909;-75
2022/11/10 01:45:43;;;;;;;;;;;8.20;99.90;;;;;;5014055;28;19916;-75
2022/11/10 01:48:10;;;;;;;;;;;8.10;99.90;;;;;;5013586;28;19909;-75
2022/11/10 01:50:37;;;;;;;;;;;8.00;99.90;;;;;;5014054;28;20354;-75
2022/11/10 01:53:05;;;;;;;;;;;8.00;99.90;;;;;;5013448;28;19913;-75
2022/11/10 01:55:31;;;;;;;;;;;8.20;99.90;;;;;;5013755;28;19913;-75
2022/11/10 01:57:56;;;;;;;;;;;8.30;99.90;;;;;;4995942;28;20483;-75
2022/11/10 02:00:22;;;;;;;;;;;8.30;99.90;;;;;;5013998;28;19909;-75
2022/11/10 02:02:47;;;;;;;;;;;8.30;99.90;;;;;;5013403;28;20000;-75
2022/11/10 02:05:13;;;;;;;;;;;8.20;99.90;;;;;;5013707;28;19910;-75
2022/11/10 02:07:39;;;;;;;;;;;8.20;99.90;;;;;;5013336;28;19910;-75
2022/11/10 02:10:05;;;;;;;;;;;8.10;99.90;;;;;;5013638;28;19913;-75
2022/11/10 02:12:36;;;;;;;;;;;8.20;99.90;;;;;;5014798;28;19914;-75
2022/11/10 02:15:03;;;;;;;;;;;8.30;99.90;;;;;;4998984;28;19952;-76
2022/11/10 02:17:29;;;;;;;;;;;8.20;99.90;;;;;;5016690;28;19909;-75
2022/11/10 02:19:57;;;;;;;;;;;8.20;99.90;;;;;;5016595;28;19933;-75
2022/11/10 02:22:23;;;;;;;;;;;8.20;99.90;;;;;;5016998;28;19914;-76
2022/11/10 02:24:48;;;;;;;;;;;8.20;99.90;;;;;;5016648;28;20348;-75
2022/11/10 02:27:14;;;;;;;;;;;8.20;99.90;;;;;;5016885;28;19914;-75
2022/11/10 02:29:39;;;;;;;;;;;8.10;99.90;;;;;;5016576;28;19917;-76
2022/11/10 02:32:05;;;;;;;;;;;8.10;99.90;;;;;;5016742;28;19913;-75
2022/11/10 02:34:30;;;;;;;;;;;8.20;99.90;;;;;;5016508;28;19909;-75
2022/11/10 02:36:56;;;;;;;;;;;8.30;99.90;;;;;;5016694;28;19910;-75
2022/11/10 02:39:21;;;;;;;;;;;8.20;99.90;;;;;;5016373;28;19916;-76
2022/11/10 02:41:47;;;;;;;;;;;8.10;99.90;;;;;;5016626;28;19980;-75
2022/11/10 02:44:12;;;;;;;;;;;7.90;99.90;;;;;;5016832;28;20392;-76
2022/11/10 02:46:38;;;;;;;;;;;7.90;99.90;;;;;;5016265;28;19909;-75
2022/11/10 02:49:03;;;;;;;;;;;7.90;99.90;;;;;;5016231;28;20336;-75
2022/11/10 02:51:29;;;;;;;;;;;8.00;99.90;;;;;;5016085;28;19909;-75
2022/11/10 02:53:54;;;;;;;;;;;8.00;99.90;;;;;;5016124;28;20012;-76
2022/11/10 02:56:20;;;;;;;;;;;8.00;99.90;;;;;;5016363;28;19909;-74
2022/11/10 02:58:45;;;;;;;;;;;8.10;99.90;;;;;;5016314;28;19910;-75
2022/11/10 03:01:11;;;;;;;;;;;8.10;99.90;;;;;;5016033;28;19992;-75
2022/11/10 03:03:36;;;;;;;;;;;8.10;99.90;;;;;;4998396;28;19913;-75
2022/11/10 03:06:02;;;;;;;;;;;8.20;99.90;;;;;;5015923;28;19997;-76
2022/11/10 03:08:27;;;;;;;;;;;8.30;99.90;;;;;;5016453;28;19949;-75
2022/11/10 03:10:54;;;;;;;;;;;8.30;99.90;;;;;;5015838;28;19910;-75
2022/11/10 03:13:20;;;;;;;;;;;8.40;99.90;;;;;;5015708;28;20431;-76
2022/11/10 03:15:48;;;;;;;;;;;8.30;99.90;;;;;;5015650;28;19956;-75
2022/11/10 03:18:14;;;;;;;;;;;8.20;99.90;;;;;;4997925;28;20288;-76
2022/11/10 03:20:40;;;;;;;;;;;8.10;99.90;;;;;;5015948;28;19914;-76
2022/11/10 03:23:06;;;;;;;;;;;8.10;99.90;;;;;;5015550;28;19995;-75
2022/11/10 03:25:32;;;;;;;;;;;8.20;99.90;;;;;;5015535;28;19969;-75
2022/11/10 03:27:57;;;;;;;;;;;8.30;99.90;;;;;;5015554;28;19910;-75
2022/11/10 03:30:23;;;;;;;;;;;8.40;99.90;;;;;;4997889;28;19917;-75
2022/11/10 03:32:49;;;;;;;;;;;8.50;99.90;;;;;;5015377;28;20381;-75
2022/11/10 03:35:14;;;;;;;;;;;8.50;99.90;;;;;;5015646;28;19968;-76
2022/11/10 03:37:40;;;;;;;;;;;8.50;99.90;;;;;;5015356;28;19909;-75
2022/11/10 03:40:06;;;;;;;;;;;8.40;99.90;;;;;;5015565;28;19996;-76
2022/11/10 03:42:32;;;;;;;;;;;8.30;99.90;;;;;;5015150;28;19948;-75
2022/11/10 03:44:57;;;;;;;;;;;8.30;99.90;;;;;;5015982;28;19910;-75
2022/11/10 03:47:23;;;;;;;;;;;8.30;99.90;;;;;;5015138;28;19949;-76
2022/11/10 03:49:48;;;;;;;;;;;8.40;99.90;;;;;;5015082;28;20000;-75
2022/11/10 03:52:14;;;;;;;;;;;8.50;99.90;;;;;;5015252;28;19917;-75
2022/11/10 03:54:39;;;;;;;;;;;8.50;99.90;;;;;;5014974;28;19996;-75
2022/11/10 03:57:05;;;;;;;;;;;8.40;99.90;;;;;;4997355;28;19952;-76
2022/11/10 03:59:31;;;;;;;;;;;8.40;99.90;;;;;;5015191;28;19996;-75
2022/11/10 04:01:56;;;;;;;;;;;8.50;99.90;;;;;;5015218;28;19909;-75
2022/11/10 04:09:51;;;;;;;;;;;8.70;99.90;;;;;;5014797;28;19917;-75
2022/11/10 04:17:49;;;;;;;;;;;9.00;99.90;;;;;;5014581;28;19956;-76
2022/11/10 04:20:14;;;;;;;;;;;9.10;99.90;;;;;;5014166;28;19983;-75
2022/11/10 04:25:24;;;;;;;;;;;8.80;99.90;;;;;;5014550;28;20001;-75
2022/11/10 04:27:49;;;;;;;;;;;8.70;99.90;;;;;;5014750;28;19953;-75
2022/11/10 04:30:15;;;;;;;;;;;8.50;99.90;;;;;;5014399;28;19916;-76
2022/11/10 04:32:40;;;;;;;;;;;8.50;99.90;;;;;;5014311;28;19960;-76
2022/11/10 04:35:06;;;;;;;;;;;8.30;99.90;;;;;;4996276;28;19936;-75
2022/11/10 04:37:31;;;;;;;;;;;8.40;99.90;;;;;;5014293;28;19916;-75
2022/11/10 04:39:57;;;;;;;;;;;8.40;99.90;;;;;;5014819;28;19967;-75
2022/11/10 04:42:22;;;;;;;;;;;8.50;99.90;;;;;;5014250;28;19968;-75
2022/11/10 04:44:48;;;;;;;;;;;8.70;99.90;;;;;;5014975;28;20362;-75
2022/11/10 04:47:13;;;;;;;;;;;8.80;99.90;;;;;;5014402;28;19917;-75
2022/11/10 04:49:39;;;;;;;;;;;8.70;99.90;;;;;;5014152;28;19916;-75
2022/11/10 04:52:04;;;;;;;;;;;8.70;99.90;;;;;;5014023;28;20444;-75
2022/11/10 04:54:30;;;;;;;;;;;8.70;99.90;;;;;;5014064;28;19952;-75
2022/11/10 04:56:55;;;;;;;;;;;8.60;99.90;;;;;;5014332;28;19916;-75
2022/11/10 04:59:21;;;;;;;;;;;8.70;99.90;;;;;;5014296;28;20362;-75
2022/11/10 05:01:46;;;;;;;;;;;8.80;99.90;;;;;;5013976;28;20392;-75
2022/11/10 05:04:12;;;;;;;;;;;8.80;99.90;;;;;;5014491;28;20004;-75
2022/11/10 05:06:37;;;;;;;;;;;8.90;99.90;;;;;;5013914;28;19916;-75
2022/11/10 05:09:03;;;;;;;;;;;8.90;99.90;;;;;;5013936;28;19996;-75
2022/11/10 05:11:28;;;;;;;;;;;8.90;99.90;;;;;;5014115;28;19909;-76
2022/11/10 05:13:54;;;;;;;;;;;8.90;99.90;;;;;;5013923;28;19913;-75
2022/11/10 05:16:19;;;;;;;;;;;8.90;99.90;;;;;;5014000;28;19941;-75
2022/11/10 05:18:45;;;;;;;;;;;8.90;99.90;;;;;;5013606;28;20015;-75
2022/11/10 05:21:10;;;;;;;;;;;9.00;99.90;;;;;;5013833;28;19909;-75
2022/11/10 05:23:39;;;;;;;;;;;9.00;99.90;;;;;;5014100;28;19959;-75
2022/11/10 05:26:06;;;;;;;;;;;8.90;99.90;;;;;;5013774;28;19920;-75
2022/11/10 05:28:31;;;;;;;;;;;8.80;99.90;;;;;;5013749;28;20281;-75
2022/11/10 05:30:57;;;;;;;;;;;8.90;99.90;;;;;;5014287;28;19909;-75
2022/11/10 05:33:22;;;;;;;;;;;8.90;99.90;;;;;;5013915;28;19913;-75
2022/11/10 05:35:48;;;;;;;;;;;8.90;99.90;;;;;;5013665;28;19913;-76
2022/11/10 05:38:14;;;;;;;;;;;9.00;99.90;;;;;;5014168;28;19918;-75
2022/11/10 05:40:40;;;;;;;;;;;8.90;99.90;;;;;;5013597;28;19963;-75
2022/11/10 05:43:05;;;;;;;;;;;9.00;99.90;;;;;;5013524;28;19917;-75
2022/11/10 05:45:31;;;;;;;;;;;8.90;99.90;;;;;;5014334;28;20000;-75
2022/11/10 05:47:56;;;;;;;;;;;8.90;99.90;;;;;;5016102;28;19916;-75
2022/11/10 05:50:22;;;;;;;;;;;9.00;99.90;;;;;;4999635;28;20448;-75
2022/11/10 05:52:50;;;;;;;;;;;9.00;99.90;;;;;;5017459;28;19943;-75
2022/11/10 05:55:17;;;;;;;;;;;8.80;99.90;;;;;;5017209;28;19910;-75
2022/11/10 05:57:44;;;;;;;;;;;8.80;99.90;;;;;;5017185;28;19909;-75
2022/11/10 06:00:09;;;;;;;;;;;8.80;99.90;;;;;;5017686;28;19917;-75
2022/11/10 06:02:35;;;;;;;;;;;8.80;99.90;;;;;;5017104;28;20412;-75
2022/11/10 06:05:01;;;;;;;;;;;8.70;99.90;;;;;;5017077;28;19910;-75
2022/11/10 06:07:26;;;;;;;;;;;8.80;99.90;;;;;;5017001;28;20432;-76
2022/11/10 06:09:55;;;;;;;;;;;8.80;99.90;;;;;;5017308;28;20427;-76
2022/11/10 06:12:20;;;;;;;;;;;8.90;99.90;;;;;;5016884;28;19920;-75
2022/11/10 06:14:46;;;;;;;;;;;8.80;99.90;;;;;;5017194;28;19909;-76
2022/11/10 06:17:12;;;;;;;;;;;8.80;99.90;;;;;;5016766;28;20292;-75
2022/11/10 06:19:38;;;;;;;;;;;8.70;99.90;;;;;;5016711;28;19928;-75
2022/11/10 06:22:03;;;;;;;;;;;8.70;99.90;;;;;;5016778;28;19913;-75
2022/11/10 06:24:29;;;;;;;;;;;8.80;99.90;;;;;;5016996;28;19910;-75
2022/11/10 06:26:54;;;;;;;;;;;8.80;99.90;;;;;;5016688;28;19917;-74
2022/11/10 06:29:20;;;;;;;;;;;8.90;99.90;;;;;;5016913;28;19910;-75
2022/11/10 06:31:45;;;;;;;;;;;8.90;99.90;;;;;;5016501;28;19910;-75
2022/11/10 06:34:11;;;;;;;;;;;8.90;99.90;;;;;;5017088;28;19910;-75
2022/11/10 06:36:38;;;;;;;;;;;8.80;99.90;;;;;;5016520;28;19910;-75
2022/11/10 06:39:03;;;;;;;;;;;8.80;99.90;;;;;;5016968;28;19974;-75
2022/11/10 06:41:29;;;;;;;;;;;8.90;99.90;;;;;;5016668;28;19913;-75
2022/11/10 06:43:55;;;;;;;;;;;9.00;99.90;;;;;;5016612;28;19914;-76
2022/11/10 06:46:20;;;;;;;;;;;9.00;99.90;;;;;;5017109;28;19917;-75
2022/11/10 06:48:46;;;;;;;;;;;9.00;99.90;;;;;;5016562;28;19968;-76
2022/11/10 06:51:11;;;;;;;;;;;9.00;99.90;;;;;;5016191;28;19909;-76
2022/11/10 06:53:36;;;;;;;;;;;9.00;99.90;;;;;;5016128;28;19964;-75
2022/11/10 06:56:02;;;;;;;;;;;9.00;99.90;;;;;;5016163;28;19953;-75
2022/11/10 06:58:28;;;;;;;;;;;8.90;99.90;;;;;;5016184;28;19909;-75
2022/11/10 07:00:53;;;;;;;;;;;9.00;99.90;;;;;;5016067;28;19910;-75
2022/11/10 07:03:18;;;;;;;;;;;9.00;99.90;;;;;;5016301;28;19976;-76
2022/11/10 07:05:44;;;;;;;;;;;9.00;99.90;;;;;;5015981;28;20373;-74
2022/11/10 07:08:15;;;;;;;;;;;9.00;99.90;;;;;;5015929;28;19910;-75
2022/11/10 07:10:50;;;;;;;;;;;9.00;99.90;;;;;;5016166;28;20365;-75
2022/11/10 07:13:16;;;;;;;;;;;9.00;99.90;;;;;;5015728;28;19913;-75
2022/11/10 07:15:42;;;;;;;;;;;9.00;99.90;;;;;;5015935;28;19910;-76
2022/11/10 07:18:07;;;;;;;;;;;9.00;99.90;;;;;;5015644;28;19933;-76
2022/11/10 07:20:34;;;;;;;;;;;9.00;99.90;;;;;;5015473;28;19999;-76
2022/11/10 07:23:04;;;;;;;;;;;9.00;99.90;;;;;;5015846;28;19964;-75
2022/11/10 07:25:30;;;;;;;;;;;8.90;99.90;;;;;;5015479;28;19913;-76
2022/11/10 07:27:57;;;;;;;;;;;8.90;99.90;;;;;;5015743;28;20353;-76
2022/11/10 07:30:23;;;;;;;;;;;9.00;99.90;;;;;;5015757;28;19972;-75
2022/11/10 07:33:01;;;;;;;;;;;9.00;99.90;;;;;;5015366;28;19917;-75
2022/11/10 07:35:28;;;;;;;;;;;9.00;99.90;;;;;;5015409;28;19992;-75
2022/11/10 07:37:54;;;;;;;;;;;9.10;99.90;;;;;;5015364;28;19982;-74
2022/11/10 07:40:20;;;;;;;;;;;9.10;99.90;;;;;;5015742;28;19956;-76
2022/11/10 07:42:45;;;;;;;;;;;9.10;99.90;;;;;;5015235;28;19963;-77
2022/11/10 07:45:11;;;;;;;;;;;9.20;99.90;;;;;;5015790;28;19913;-74
2022/11/10 07:47:36;;;;;;;;;;;9.20;99.90;;;;;;5015223;28;19910;-74
2022/11/10 07:50:02;;;;;;;;;;;9.20;99.90;;;;;;5012566;28;19917;-73
2022/11/10 07:52:28;;;;;;;;;;;9.20;99.90;;;;;;5013403;28;19917;-78
2022/11/10 07:54:53;;;;;;;;;;;9.30;99.90;;;;;;5014305;28;19909;-72
2022/11/10 09:57:52;;;;;;;;;;;14.00;99.90;;;;;;5091350;27;19922;-72
2022/11/10 10:00:17;;;;;;;;;;;14.00;99.90;;;;;;5091312;28;19912;-72
2022/11/10 10:03:03;;;;;;;;;;;14.10;99.90;;;;;;5091561;28;19908;-73
2022/11/10 10:05:31;;;;;;;;;;;14.10;99.90;;;;;;5091239;28;19912;-70
2022/11/10 10:07:59;;;;;;;;;;;14.10;99.90;;;;;;5091437;28;19915;-72
2022/11/10 10:10:25;;;;;;;;;;;14.20;99.90;;;;;;5091081;28;20410;-73
2022/11/10 10:12:53;;;;;;;;;;;14.20;99.90;;;;;;5091605;28;19947;-73
2022/11/10 10:15:19;;;;;;;;;;;14.30;99.90;;;;;;5090938;28;19915;-69
2022/11/10 10:17:47;;;;;;;;;;;14.40;99.90;;;;;;5091257;28;19909;-74
2022/11/10 10:20:13;;;;;;;;;;;14.40;99.90;;;;;;5090897;28;19931;-71
2022/11/10 10:22:54;;;;;;;;;;;14.50;99.90;;;;;;5090836;28;20368;-69
2022/11/10 10:25:23;;;;;;;;;;;14.50;99.90;;;;;;5091101;28;19954;-70
2022/11/10 10:27:56;;;;;;;;;;;14.50;99.90;;;;;;5090958;28;19908;-69
2022/11/10 10:30:22;;;;;;;;;;;14.50;99.90;;;;;;5091022;28;19908;-70
2022/11/10 10:32:50;;;;;;;;;;;14.60;99.90;;;;;;5090642;28;19913;-69
2022/11/10 10:35:16;;;;;;;;;;;14.70;99.90;;;;;;5090623;28;19908;-72
2022/11/10 10:53:04;;;;;;;;;;;14.80;99.90;;;;;;5112191;27;19908;-73
2022/11/10 10:55:29;;;;;;;;;;;15.50;99.90;;;;;;5111356;28;19965;-73
2022/11/10 10:57:57;;;;;;;;;;;15.40;99.90;;;;;;5111565;28;19957;-80
2022/11/10 11:00:23;;;;;;;;;;;15.30;99.90;;;;;;5111199;28;20019;-79
2022/11/10 11:03:03;;;;;;;;;;;15.10;99.90;;;;;;5110944;28;20058;-75
2022/11/10 11:05:28;;;;;;;;;;;15.10;99.90;;;;;;5117524;28;19912;-74
2022/11/10 11:07:55;;;;;;;;;;;15.00;99.90;;;;;;5114332;28;19912;-75
2022/11/10 11:10:20;;;;;;;;;;;14.90;99.90;;;;;;5121195;28;20438;-77
2022/11/10 11:12:46;;;;;;;;;;;14.90;99.90;;;;;;5120453;28;19914;-74
2022/11/10 11:15:20;;;;;;;;;;;14.90;99.90;;;;;;5118644;28;19912;-78
2022/11/10 11:17:56;;;;;;;;;;;14.90;99.90;;;;;;5131469;28;19908;-77
2022/11/10 11:20:27;;;;;;;;;;;14.80;99.90;;;;;;5131566;28;20287;-78
2022/11/10 11:22:58;;;;;;;;;;;14.80;99.90;;;;;;5131361;28;19908;-75
2022/11/10 11:25:35;;;;;;;;;;;14.80;99.90;;;;;;5132175;28;19908;-76
2022/11/10 11:28:02;;;;;;;;;;;14.80;99.90;;;;;;5131217;28;20254;-79
2022/11/10 11:30:36;;;;;;;;;;;14.80;99.90;;;;;;5131454;28;20352;-75
2022/11/10 11:33:02;;;;;;;;;;;14.90;99.90;;;;;;5131477;28;20002;-78
2022/11/10 11:35:36;;;;;;;;;;;14.90;99.90;;;;;;5131104;28;19943;-78
2022/11/10 11:38:09;;;;;;;;;;;14.80;99.90;;;;;;5131006;28;19918;-77
2022/11/10 11:40:37;;;;;;;;;;;14.80;99.90;;;;;;5131213;28;19912;-77
2022/11/10 11:43:05;;;;;;;;;;;14.80;99.90;;;;;;5130864;28;19914;-74
2022/11/10 11:45:49;;;;;;;;;;;14.90;99.90;;;;;;5113062;28;19907;-79
2022/11/10 11:48:33;;;;;;;;;;;15.00;99.90;;;;;;5131090;28;20272;-79
2022/11/10 11:51:05;;;;;;;;;;;15.00;99.90;;;;;;5130553;28;19920;-73
2022/11/10 11:53:33;;;;;;;;;;;15.10;99.90;;;;;;5118758;28;19960;-75
2022/11/10 11:56:11;;;;;;;;;;;15.10;99.90;;;;;;5117115;28;19915;-77
2022/11/10 11:58:44;;;;;;;;;;;15.20;99.90;;;;;;5116925;28;19908;-76
2022/11/10 12:01:28;;;;;;;;;;;15.20;99.90;;;;;;5116768;28;19912;-75
2022/11/10 12:03:54;;;;;;;;;;;15.20;99.90;;;;;;5116831;28;20296;-75
2022/11/10 12:06:19;;;;;;;;;;;15.30;99.90;;;;;;5116801;28;19915;-72
2022/11/10 12:08:52;;;;;;;;;;;15.30;99.90;;;;;;5116748;28;19907;-72
2022/11/10 12:11:24;;;;;;;;;;;15.40;99.90;;;;;;5117022;28;19943;-74
2022/11/10 12:14:22;;;;;;;;;;;15.40;99.90;;;;;;5116645;28;19908;-73
2022/11/10 12:16:58;;;;;;;;;;;15.50;99.90;;;;;;5060645;28;20272;-72
2022/11/10 12:19:40;;;;;;;;;;;15.50;99.90;;;;;;5116829;28;19907;-74
2022/11/10 12:22:14;;;;;;;;;;;15.50;99.90;;;;;;5116715;28;20007;-72
2022/11/10 12:24:40;;;;;;;;;;;15.50;99.90;;;;;;5098162;28;20284;-72
2022/11/10 12:27:15;;;;;;;;;;;15.50;99.90;;;;;;5116420;28;19998;-72
2022/11/10 12:29:47;;;;;;;;;;;15.50;99.90;;;;;;5116919;28;20272;-72
2022/11/10 12:32:19;;;;;;;;;;;15.50;99.90;;;;;;5116316;28;20002;-72
2022/11/10 12:34:59;;;;;;;;;;;15.50;99.90;;;;;;5116236;28;20310;-74
2022/11/10 12:37:31;;;;;;;;;;;15.60;99.90;;;;;;5116509;28;19908;-72
2022/11/10 12:40:08;;;;;;;;;;;15.60;99.90;;;;;;5116430;28;19914;-73
2022/11/10 12:42:36;;;;;;;;;;;15.60;99.90;;;;;;5116360;28;19907;-72
2022/11/10 12:45:06;;;;;;;;;;;15.60;99.90;;;;;;5116053;28;19911;-73
2022/11/10 12:47:42;;;;;;;;;;;15.70;99.90;;;;;;5098166;28;19912;-72
2022/11/10 12:50:26;;;;;;;;;;;15.70;99.90;;;;;;5116284;28;19908;-73
2022/11/10 12:52:55;;;;;;;;;;;15.80;99.90;;;;;;5115938;28;19962;-73
2022/11/10 12:55:32;;;;;;;;;;;15.90;99.90;;;;;;5115882;28;20384;-72
2022/11/10 12:58:00;;;;;;;;;;;15.90;99.90;;;;;;5116156;28;19908;-71
2022/11/10 13:00:27;;;;;;;;;;;15.90;99.90;;;;;;5115658;28;19912;-73
2022/11/10 13:02:54;;;;;;;;;;;16.00;99.90;;;;;;5116186;28;19915;-72
2022/11/10 13:05:25;;;;;;;;;;;16.00;99.90;;;;;;5114647;28;19908;-73
2022/11/10 13:08:04;;;;;;;;;;;16.00;99.90;;;;;;5115908;28;19912;-72
2022/11/10 13:10:30;;;;;;;;;;;16.10;99.90;;;;;;5115463;28;19914;-72
2022/11/10 13:12:58;;;;;;;;;;;16.20;99.90;;;;;;5101188;28;19908;-72
2022/11/10 13:15:36;;;;;;;;;;;16.10;99.90;;;;;;5116014;28;19912;-80
2022/11/10 13:18:01;;;;;;;;;;;16.00;99.90;;;;;;5115240;28;20399;-79
2022/11/10 13:20:46;;;;;;;;;;;15.90;99.90;;;;;;5115872;28;19912;-81
2022/11/10 13:23:24;;;;;;;;;;;16.00;99.90;;;;;;5114433;28;19912;-78
2022/11/10 13:25:51;;;;;;;;;;;16.00;99.90;;;;;;5115298;28;19950;-79
2022/11/10 13:28:36;;;;;;;;;;;16.10;99.90;;;;;;5113754;28;19946;-80
2022/11/10 13:31:22;;;;;;;;;;;16.10;99.90;;;;;;5114946;28;19915;-76
2022/11/10 13:34:06;;;;;;;;;;;16.00;99.90;;;;;;5115074;28;19957;-75
2022/11/10 13:36:49;;;;;;;;;;;16.00;99.90;;;;;;5115018;28;19951;-77
2022/11/10 13:39:18;;;;;;;;;;;16.10;99.90;;;;;;5105129;28;19908;-77
2022/11/10 13:42:07;;;;;;;;;;;16.20;99.90;;;;;;5108680;28;20360;-78
2022/11/10 13:44:34;;;;;;;;;;;16.20;99.90;;;;;;5100301;28;19956;-79
2022/11/10 13:47:03;;;;;;;;;;;16.20;99.90;;;;;;5115319;28;19955;-83
2022/11/10 13:49:54;;;;;;;;;;;16.20;99.90;;;;;;5103214;28;19915;-79
2022/11/10 13:52:49;;;;;;;;;;;16.30;99.90;;;;;;5094196;28;19920;-76
2022/11/10 13:55:30;;;;;;;;;;;16.20;99.90;;;;;;5076849;28;19915;-77
2022/11/10 13:58:01;;;;;;;;;;;16.20;99.90;;;;;;5105645;28;19912;-79
2022/11/10 14:00:28;;;;;;;;;;;16.30;99.90;;;;;;5114838;28;19934;-80
2022/11/10 14:02:55;;;;;;;;;;;16.20;99.90;;;;;;5109012;28;19918;-78
2022/11/10 14:05:41;;;;;;;;;;;16.20;99.90;;;;;;5093718;28;19961;-75
2022/11/10 14:08:14;;;;;;;;;;;16.10;99.90;;;;;;5079679;28;20352;-79
2022/11/10 14:10:57;;;;;;;;;;;16.10;99.90;;;;;;5094377;28;19915;-77
2022/11/10 14:13:31;;;;;;;;;;;16.20;99.90;;;;;;5100677;28;19912;-73
2022/11/10 14:15:57;;;;;;;;;;;16.20;99.90;;;;;;5113841;28;19908;-74
2022/11/10 14:18:25;;;;;;;;;;;16.10;99.90;;;;;;5112701;28;19919;-74
2022/11/10 14:20:53;;;;;;;;;;;16.10;99.90;;;;;;5114497;28;19916;-74
2022/11/10 14:23:23;;;;;;;;;;;16.10;99.90;;;;;;5114258;28;19947;-80
2022/11/10 14:25:58;;;;;;;;;;;16.20;99.90;;;;;;5114718;28;19936;-84
2022/11/10 14:28:28;;;;;;;;;;;16.30;99.90;;;;;;5099339;28;19916;-77
2022/11/10 14:30:54;;;;;;;;;;;16.20;99.90;;;;;;5092881;28;19912;-75
2022/11/10 14:33:20;;;;;;;;;;;16.20;99.90;;;;;;5093873;28;19927;-79
2022/11/10 14:36:14;;;;;;;;;;;16.20;99.90;;;;;;5100817;28;19951;-86
2022/11/10 14:38:42;;;;;;;;;;;16.20;99.90;;;;;;5072121;28;20022;-82
2022/11/10 14:41:13;;;;;;;;;;;16.20;99.90;;;;;;5075188;28;19912;-82
2022/11/10 14:43:39;;;;;;;;;;;16.20;99.90;;;;;;5093798;28;19915;-78
2022/11/10 14:46:05;;;;;;;;;;;16.20;99.90;;;;;;5094492;28;19908;-81
2022/11/10 14:48:32;;;;;;;;;;;16.20;99.90;;;;;;5106705;28;19908;-81
2022/11/10 14:51:02;;;;;;;;;;;16.10;99.90;;;;;;5095588;28;19924;-76
2022/11/10 14:53:31;;;;;;;;;;;16.10;99.90;;;;;;5096662;28;20338;-76
2022/11/10 14:55:57;;;;;;;;;;;16.00;99.90;;;;;;5093846;28;19999;-79
2022/11/10 14:58:43;;;;;;;;;;;16.00;99.90;;;;;;5093544;28;20283;-79
2022/11/10 15:01:22;;;;;;;;;;;15.90;99.90;;;;;;5073609;28;19922;-75
2022/11/10 15:03:47;;;;;;;;;;;15.90;99.90;;;;;;5098638;28;19919;-76
2022/11/10 15:06:13;;;;;;;;;;;15.90;99.90;;;;;;5108831;28;19919;-72
2022/11/10 15:08:39;;;;;;;;;;;15.90;99.90;;;;;;5113861;28;20003;-72
2022/11/10 15:11:04;;;;;;;;;;;15.90;99.90;;;;;;5110657;28;19907;-80
2022/11/10 15:13:33;;;;;;;;;;;15.90;99.90;;;;;;5101578;28;20015;-76
2022/11/10 15:16:17;;;;;;;;;;;15.80;99.90;;;;;;5113758;28;19914;-77
2022/11/10 15:18:42;;;;;;;;;;;15.80;99.90;;;;;;5099264;28;20010;-78
2022/11/10 15:21:10;;;;;;;;;;;15.80;99.90;;;;;;5094779;28;19947;-84
2022/11/10 15:23:37;;;;;;;;;;;15.70;99.90;;;;;;5102088;28;19937;-81
2022/11/10 15:26:04;;;;;;;;;;;15.70;99.90;;;;;;5093493;28;20002;-83
2022/11/10 15:28:30;;;;;;;;;;;15.70;99.90;;;;;;5080383;28;20022;-84
2022/11/10 15:31:04;;;;;;;;;;;15.70;99.90;;;;;;5088486;28;19915;-78
2022/11/10 15:33:31;;;;;;;;;;;15.60;99.90;;;;;;5078365;28;19913;-80
2022/11/10 15:36:12;;;;;;;;;;;15.60;99.90;;;;;;5096539;28;19957;-76
2022/11/10 15:38:37;;;;;;;;;;;15.60;99.90;;;;;;5077160;28;20290;-75
2022/11/10 15:41:10;;;;;;;;;;;15.60;99.90;;;;;;5095564;28;19919;-81
2022/11/10 15:43:36;;;;;;;;;;;15.60;99.90;;;;;;5096301;28;19919;-77
2022/11/10 15:46:02;;;;;;;;;;;15.60;99.90;;;;;;5096678;28;19904;-74
2022/11/10 15:48:34;;;;;;;;;;;15.50;99.90;;;;;;5098863;28;20329;-76
2022/11/10 15:51:00;;;;;;;;;;;15.50;99.90;;;;;;5102777;28;19967;-73
2022/11/10 15:53:27;;;;;;;;;;;15.50;99.90;;;;;;5100976;28;19955;-76
2022/11/10 15:55:52;;;;;;;;;;;15.50;99.90;;;;;;5097792;28;19924;-73
2022/11/10 15:58:19;;;;;;;;;;;15.50;99.90;;;;;;5115871;28;19914;-73
2022/11/10 16:00:45;;;;;;;;;;;15.50;99.90;;;;;;5116285;28;19912;-73
2022/11/10 16:03:11;;;;;;;;;;;15.50;99.90;;;;;;5116897;28;19946;-73
2022/11/10 16:05:40;;;;;;;;;;;15.40;99.90;;;;;;5116969;28;19912;-72
2022/11/10 16:08:12;;;;;;;;;;;15.40;99.90;;;;;;5107969;28;19916;-80
2022/11/10 16:10:39;;;;;;;;;;;15.30;99.90;;;;;;5113025;28;19919;-74
2022/11/10 16:13:05;;;;;;;;;;;15.30;99.90;;;;;;5116027;28;20311;-73
2022/11/10 16:15:31;;;;;;;;;;;15.20;99.90;;;;;;5114806;28;19962;-73
2022/11/10 16:17:56;;;;;;;;;;;15.20;99.90;;;;;;5115163;28;19908;-73
2022/11/10 16:20:22;;;;;;;;;;;15.10;99.90;;;;;;5115442;28;20284;-73
2022/11/10 16:22:47;;;;;;;;;;;15.00;99.90;;;;;;5115817;28;20300;-72
2022/11/10 16:25:13;;;;;;;;;;;15.00;99.90;;;;;;5115705;28;20284;-73
2022/11/10 16:27:39;;;;;;;;;;;14.90;99.90;;;;;;5115689;28;19907;-72
2022/11/10 16:30:12;;;;;;;;;;;14.80;99.90;;;;;;5116286;28;19908;-73
2022/11/10 16:32:37;;;;;;;;;;;14.80;99.90;;;;;;5116893;28;20049;-73
2022/11/10 16:35:03;;;;;;;;;;;14.70;99.90;;;;;;5116285;28;20395;-72
2022/11/10 16:37:28;;;;;;;;;;;14.70;99.90;;;;;;5116794;28;19908;-72
2022/11/10 16:39:54;;;;;;;;;;;14.60;99.90;;;;;;5116376;28;19908;-72
2022/11/10 16:42:19;;;;;;;;;;;14.60;99.90;;;;;;5116006;28;20295;-73
2022/11/10 16:44:45;;;;;;;;;;;14.50;99.90;;;;;;5116098;28;19908;-73
2022/11/10 16:47:15;;;;;;;;;;;14.50;99.90;;;;;;5116580;28;19954;-73
2022/11/10 16:49:42;;;;;;;;;;;14.40;99.90;;;;;;5116280;28;19960;-73
2022/11/10 16:52:12;;;;;;;;;;;14.40;99.90;;;;;;5115792;28;19920;-73
2022/11/10 16:54:38;;;;;;;;;;;14.40;99.90;;;;;;5116218;28;19908;-73
2022/11/10 16:57:14;;;;;;;;;;;14.40;99.90;;;;;;5115866;28;19908;-73
2022/11/10 16:59:41;;;;;;;;;;;14.40;99.90;;;;;;5115793;28;19999;-74
2022/11/10 17:02:27;;;;;;;;;;;14.40;99.90;;;;;;5115630;28;19912;-72